createdAt,value
2023-03-14T00:01:27.583Z,85.72
2023-03-14T00:06:46.709Z,85.63
2023-03-14T00:12:05.938Z,85.32
2023-03-14T00:17:24.996Z,85.25
2023-03-14T00:22:44.622Z,85.35
2023-03-14T00:28:04.388Z,85.24
2023-03-14T00:33:23.169Z,84.75
2023-03-14T00:38:42.738Z,83.15
2023-03-14T00:44:01.455Z,82.37
2023-03-14T00:49:20.536Z,81.44
2023-03-14T00:54:39.620Z,81.05
2023-03-14T00:59:58.617Z,80.79
2023-03-14T01:05:18.367Z,80.44
2023-03-14T01:10:38.036Z,80.53
2023-03-14T01:15:57.461Z,80.99
2023-03-14T01:21:16.246Z,81.35
2023-03-14T01:26:35.000Z,81.66
2023-03-14T01:31:54.302Z,82.07
2023-03-14T01:37:13.268Z,81.86
2023-03-14T01:42:32.646Z,81.65
2023-03-14T01:42:57.694Z,79.91
2023-03-14T01:48:16.752Z,82.17
2023-03-14T01:53:44.834Z,82.36
2023-03-14T01:58:55.000Z,82.33
2023-03-14T02:04:13.807Z,82.43
2023-03-14T02:09:33.190Z,82.57
2023-03-14T02:14:52.748Z,82.62
2023-03-14T02:20:11.740Z,82.6
2023-03-14T02:25:39.211Z,82.64
2023-03-14T02:30:49.829Z,82.54
2023-03-14T02:36:09.303Z,82.35
2023-03-14T02:41:28.518Z,82.48
2023-03-14T02:46:48.107Z,81.96
2023-03-14T02:52:07.809Z,81.25
2023-03-14T02:57:27.349Z,81.44
2023-03-14T03:02:46.156Z,80.65
2023-03-14T03:08:05.328Z,81.03
2023-03-14T03:13:24.422Z,80.53
2023-03-14T03:18:44.024Z,80.64
2023-03-14T03:24:03.031Z,79.6
2023-03-14T03:29:22.239Z,79.69
2023-03-14T03:34:40.971Z,80.37
2023-03-14T03:40:00.308Z,80.47
2023-03-14T03:45:19.804Z,80.85
2023-03-14T03:50:39.586Z,80.33
2023-03-14T03:55:58.283Z,79.75
2023-03-14T04:01:17.573Z,79.85
2023-03-14T04:06:37.298Z,79.66
2023-03-14T04:11:56.228Z,79.48
2023-03-14T04:17:15.909Z,79.76
2023-03-14T04:22:36.362Z,79.36
2023-03-14T04:27:54.602Z,79.73
2023-03-14T04:33:13.523Z,79.91
2023-03-14T04:38:32.620Z,79.83
2023-03-14T04:43:51.246Z,79.85
2023-03-14T04:49:11.095Z,79.8
2023-03-14T04:54:30.311Z,79.91
2023-03-14T04:59:49.167Z,79.91
2023-03-14T05:05:08.467Z,79.8
2023-03-14T05:10:28.016Z,79.33
2023-03-14T05:15:47.723Z,79.51
2023-03-14T05:21:08.056Z,79.53
2023-03-14T05:26:26.847Z,79.87
2023-03-14T05:31:45.348Z,80.01
2023-03-14T05:37:04.165Z,79.79
2023-03-14T05:42:23.413Z,79.28
2023-03-14T05:47:43.135Z,79.1
2023-03-14T05:53:01.975Z,79.01
2023-03-14T05:58:21.064Z,78.69
2023-03-14T06:03:40.179Z,78.74
2023-03-14T06:08:59.385Z,78.11
2023-03-14T06:14:18.397Z,78.33
2023-03-14T06:19:38.128Z,77.37
2023-03-14T06:24:57.484Z,77.29
2023-03-14T06:30:16.306Z,77
2023-03-14T06:35:35.154Z,76.93
2023-03-14T06:40:54.476Z,76.29
2023-03-14T06:46:13.649Z,75.79
2023-03-14T06:51:32.501Z,76.24
2023-03-14T06:56:51.308Z,77.01
2023-03-14T07:02:10.747Z,78.21
2023-03-14T07:07:30.384Z,77.51
2023-03-14T07:12:49.545Z,75.82
2023-03-14T07:18:08.315Z,75.87
2023-03-14T07:23:27.701Z,75.04
2023-03-14T07:28:46.824Z,75.96
2023-03-14T07:34:05.759Z,74.87
2023-03-14T07:39:25.111Z,74.58
2023-03-14T07:44:53.502Z,74.16
2023-03-14T07:50:03.446Z,74.37
2023-03-14T07:55:22.809Z,72.92
2023-03-14T08:00:41.606Z,71.97
2023-03-14T08:06:01.259Z,72.18
2023-03-14T08:11:20.185Z,71.92
2023-03-14T08:16:39.172Z,71.49
2023-03-14T08:22:08.829Z,71.05
2023-03-14T08:27:18.174Z,70.37
2023-03-14T08:32:37.287Z,71.5
2023-03-14T08:37:56.183Z,71.51
2023-03-14T08:43:15.372Z,72.64
2023-03-14T08:48:34.256Z,71.83
2023-03-14T08:53:53.051Z,71.81
2023-03-14T08:59:12.690Z,71.06
2023-03-14T09:04:32.558Z,70.62
2023-03-14T09:09:52.265Z,71.71
2023-03-14T09:15:11.565Z,74.35
2023-03-14T09:20:30.969Z,74.33
2023-03-14T09:25:50.653Z,74.08
2023-03-14T09:31:09.624Z,76.49
2023-03-14T09:36:28.653Z,79.08
2023-03-14T09:41:48.064Z,81.64
2023-03-14T09:47:06.990Z,80.5
2023-03-14T09:52:26.297Z,80.76
2023-03-14T09:57:45.478Z,79
2023-03-14T10:03:04.743Z,75.73
2023-03-14T10:08:23.656Z,76.07
2023-03-14T10:13:43.142Z,77.37
2023-03-14T10:19:02.446Z,77.69
2023-03-14T10:24:22.108Z,77.31
2023-03-14T10:29:41.375Z,78.05
2023-03-14T10:35:00.760Z,76.49
2023-03-14T10:40:20.035Z,75.94
2023-03-14T10:45:38.812Z,79.87
2023-03-14T10:50:57.949Z,77.06
2023-03-14T10:56:17.054Z,74.81
2023-03-14T11:01:36.281Z,74.28
2023-03-14T11:06:55.474Z,74.87
2023-03-14T11:12:14.530Z,75.24
2023-03-14T11:17:34.100Z,76.71
2023-03-14T11:22:52.880Z,77.73
2023-03-14T11:28:12.101Z,75.66
2023-03-14T11:33:31.627Z,77.67
2023-03-14T11:38:51.663Z,84.08
2023-03-14T11:44:10.192Z,87.08
2023-03-14T11:49:28.956Z,88.56
2023-03-14T11:54:48.089Z,85.16
2023-03-14T12:00:06.953Z,85.72
2023-03-14T12:05:26.193Z,86.33
2023-03-14T12:10:45.597Z,87.71
2023-03-14T12:16:05.019Z,88.81
2023-03-14T12:21:24.143Z,87.53
2023-03-14T12:26:42.954Z,85.28
2023-03-14T12:32:02.581Z,84.62
2023-03-14T12:37:21.820Z,85.19
2023-03-14T12:42:44.968Z,85.2
2023-03-14T12:47:59.976Z,88.58
2023-03-14T12:53:19.679Z,89.9
2023-03-14T12:58:39.402Z,89.75
2023-03-14T13:03:59.640Z,90.49
2023-03-14T13:09:19.010Z,89.75
2023-03-14T13:14:38.647Z,90.25
2023-03-14T13:19:56.766Z,90.8
2023-03-14T13:25:15.445Z,90.43
2023-03-14T13:30:35.032Z,90.93
2023-03-14T13:35:54.629Z,91.35
2023-03-14T13:41:13.529Z,90.76
2023-03-14T13:46:32.485Z,91.37
2023-03-14T13:51:51.128Z,92.63
2023-03-14T13:57:10.719Z,93.88
2023-03-14T14:02:29.702Z,92.12
2023-03-14T14:07:49.351Z,92.04
2023-03-14T14:13:08.356Z,92.4
2023-03-14T14:18:28.027Z,91.72
2023-03-14T14:23:47.321Z,90.99
2023-03-14T14:29:06.925Z,88.15
2023-03-14T14:34:26.028Z,86.14
2023-03-14T14:39:45.690Z,86.11
2023-03-14T14:45:04.847Z,85.26
2023-03-14T14:50:23.761Z,83.41
2023-03-14T14:55:42.889Z,80.76
2023-03-14T15:01:01.840Z,80.04
2023-03-14T15:06:21.496Z,76.78
2023-03-14T15:11:40.845Z,71.37
2023-03-14T15:17:00.219Z,70.22
2023-03-14T15:22:19.115Z,69.21
2023-03-14T15:27:38.192Z,68.04
2023-03-14T15:32:57.552Z,69.29
2023-03-14T15:38:16.938Z,70.01
2023-03-14T15:43:35.746Z,69.29
2023-03-14T15:48:55.112Z,68.29
2023-03-14T15:54:14.527Z,67.1
2023-03-14T15:59:33.506Z,63.88
2023-03-14T16:04:53.178Z,64.73
2023-03-14T16:10:12.140Z,65.08
2023-03-14T16:15:30.852Z,64.44
2023-03-14T16:20:51.591Z,63.13
2023-03-14T16:26:09.006Z,61.86
2023-03-14T16:31:29.184Z,61.99
2023-03-14T16:36:48.190Z,58.43
2023-03-14T16:42:07.461Z,58.77
2023-03-14T16:47:26.375Z,58.8
2023-03-14T16:52:46.048Z,56.96
2023-03-14T16:58:05.198Z,56.25
2023-03-14T17:03:24.678Z,57.59
2023-03-14T17:08:43.523Z,59.22
2023-03-14T17:14:02.560Z,58.9
2023-03-14T17:19:22.929Z,60.3
2023-03-14T17:24:40.713Z,60.83
2023-03-14T17:29:59.812Z,61.27
2023-03-14T17:35:18.851Z,61.15
2023-03-14T17:40:38.456Z,60.49
2023-03-14T17:45:57.652Z,60.12
2023-03-14T17:51:16.464Z,60.39
2023-03-14T17:56:35.249Z,60.53
2023-03-14T18:01:54.469Z,59.86
2023-03-14T18:07:13.327Z,60.84
2023-03-14T18:12:32.502Z,60.12
2023-03-14T18:17:51.367Z,61.82
2023-03-14T18:23:10.848Z,62.93
2023-03-14T18:28:29.832Z,63.45
2023-03-14T18:33:49.280Z,63.7
2023-03-14T18:39:08.158Z,64.19
2023-03-14T18:44:27.800Z,64.61
2023-03-14T18:49:46.937Z,64.93
2023-03-14T18:55:06.596Z,64.28
2023-03-14T19:00:25.750Z,64.96
2023-03-14T19:05:45.057Z,70.92
2023-03-14T19:11:04.645Z,78.58
2023-03-14T19:16:24.038Z,83.37
2023-03-14T19:21:43.724Z,85.65
2023-03-14T19:27:02.799Z,86.59
2023-03-14T19:27:27.159Z,84.44
2023-03-14T19:32:46.517Z,87.98
2023-03-14T19:38:06.132Z,88.8
2023-03-14T19:43:25.407Z,90.42
2023-03-14T19:48:44.314Z,91.07
2023-03-14T19:54:03.576Z,91.83
2023-03-14T19:59:22.378Z,91.86
2023-03-14T20:04:41.979Z,92.43
2023-03-14T20:10:01.289Z,93.08
2023-03-14T20:15:20.670Z,93.68
2023-03-14T20:20:39.971Z,91.96
2023-03-14T20:25:59.336Z,91.3
2023-03-14T20:31:18.300Z,91.44
2023-03-14T20:36:37.889Z,89.46
2023-03-14T20:41:56.852Z,90.27
2023-03-14T20:47:16.256Z,91.04
2023-03-14T20:52:35.134Z,91.84
2023-03-14T20:57:54.006Z,92.1
2023-03-14T21:03:13.202Z,92.76
2023-03-14T21:08:32.145Z,93.32
2023-03-14T21:13:51.420Z,93.19
2023-03-14T21:19:11.119Z,93.1
2023-03-14T21:24:30.404Z,93.1
2023-03-14T21:29:49.492Z,91.9
2023-03-14T21:35:08.424Z,92.35
2023-03-14T21:40:27.284Z,92.43
2023-03-14T21:45:46.151Z,92.36
2023-03-14T21:51:05.880Z,92.63
2023-03-14T21:56:25.118Z,92.64
2023-03-14T22:01:44.762Z,93.05
2023-03-14T22:07:03.905Z,94.23
2023-03-14T22:12:23.315Z,95.03
2023-03-14T22:17:43.134Z,95.64
2023-03-14T22:23:02.328Z,96.11
2023-03-14T22:28:21.973Z,96.28
2023-03-14T22:33:41.375Z,96.46
2023-03-14T22:39:01.014Z,96.17
2023-03-14T22:44:20.743Z,96.53
2023-03-14T22:49:40.168Z,95.52
2023-03-14T22:54:59.003Z,94.34
2023-03-14T23:00:25.924Z,93.67
2023-03-14T23:05:37.296Z,93.86
2023-03-14T23:10:56.427Z,93.33
2023-03-14T23:16:16.138Z,93.31
2023-03-14T23:21:35.352Z,93.15
2023-03-14T23:26:54.595Z,93.53
2023-03-14T23:32:14.205Z,93.94
2023-03-14T23:37:33.074Z,93.96
2023-03-14T23:42:52.374Z,94.27
2023-03-14T23:48:12.055Z,94.64
2023-03-14T23:53:30.922Z,95.23
2023-03-14T23:58:50.560Z,95.7
